sensor_id;sensor_type;location;lat;lon;timestamp;temperature;humidity
49238;DHT22;35069;47.906;1.892;2022-10-30T00:00:13;17.40;99.90
49238;DHT22;35069;47.906;1.892;2022-10-30T00:02:39;17.40;99.90
49238;DHT22;35069;47.906;1.892;2022-10-30T00:05:05;17.30;99.90
49238;DHT22;35069;47.906;1.892;2022-10-30T00:07:31;17.30;99.90
49238;DHT22;35069;47.906;1.892;2022-10-30T00:09:57;17.30;99.90
49238;DHT22;35069;47.906;1.892;2022-10-30T00:12:23;17.30;99.90
49238;DHT22;35069;47.906;1.892;2022-10-30T00:14:48;17.40;99.90
49238;DHT22;35069;47.906;1.892;2022-10-30T00:17:14;17.40;99.90
49238;DHT22;35069;47.906;1.892;2022-10-30T00:19:39;17.40;99.90
49238;DHT22;35069;47.906;1.892;2022-10-30T00:22:05;17.40;99.90
49238;DHT22;35069;47.906;1.892;2022-10-30T00:24:31;17.30;99.90
49238;DHT22;35069;47.906;1.892;2022-10-30T00:26:56;17.30;99.90
49238;DHT22;35069;47.906;1.892;2022-10-30T00:29:22;17.30;99.90
49238;DHT22;35069;47.906;1.892;2022-10-30T00:31:49;17.30;99.90
49238;DHT22;35069;47.906;1.892;2022-10-30T00:34:15;17.20;99.90
49238;DHT22;35069;47.906;1.892;2022-10-30T00:36:40;17.20;99.90
49238;DHT22;35069;47.906;1.892;2022-10-30T00:39:06;17.20;99.90
49238;DHT22;35069;47.906;1.892;2022-10-30T00:41:32;17.20;99.90
49238;DHT22;35069;47.906;1.892;2022-10-30T00:43:58;17.20;99.90
49238;DHT22;35069;47.906;1.892;2022-10-30T00:46:36;17.20;99.90
49238;DHT22;35069;47.906;1.892;2022-10-30T00:49:10;17.20;99.90
49238;DHT22;35069;47.906;1.892;2022-10-30T00:51:39;17.10;99.90
49238;DHT22;35069;47.906;1.892;2022-10-30T00:54:06;17.10;99.90
49238;DHT22;35069;47.906;1.892;2022-10-30T00:56:33;17.10;99.90
49238;DHT22;35069;47.906;1.892;2022-10-30T00:59:03;17.10;99.90
49238;DHT22;35069;47.906;1.892;2022-10-30T01:01:34;17.10;99.90
49238;DHT22;35069;47.906;1.892;2022-10-30T01:04:02;17.10;99.90
49238;DHT22;35069;47.906;1.892;2022-10-30T01:06:33;17.10;99.90
49238;DHT22;35069;47.906;1.892;2022-10-30T01:09:00;17.10;99.90
49238;DHT22;35069;47.906;1.892;2022-10-30T01:11:27;17.10;99.90
49238;DHT22;35069;47.906;1.892;2022-10-30T01:13:54;17.10;99.90
49238;DHT22;35069;47.906;1.892;2022-10-30T01:16:29;17.10;99.90
49238;DHT22;35069;47.906;1.892;2022-10-30T01:25:02;17.10;99.90
49238;DHT22;35069;47.906;1.892;2022-10-30T01:33:01;17.00;99.90
49238;DHT22;35069;47.906;1.892;2022-10-30T01:35:42;16.90;99.90
49238;DHT22;35069;47.906;1.892;2022-10-30T01:38:23;16.90;99.90
49238;DHT22;35069;47.906;1.892;2022-10-30T01:40:51;16.90;99.90
49238;DHT22;35069;47.906;1.892;2022-10-30T01:43:17;16.90;99.90
49238;DHT22;35069;47.906;1.892;2022-10-30T02:02:06;16.80;99.90
49238;DHT22;35069;47.906;1.892;2022-10-30T02:04:32;16.90;99.90
49238;DHT22;35069;47.906;1.892;2022-10-30T02:06:58;16.90;99.90
49238;DHT22;35069;47.906;1.892;2022-10-30T02:09:25;16.90;99.90
49238;DHT22;35069;47.906;1.892;2022-10-30T02:11:51;16.80;99.90
49238;DHT22;35069;47.906;1.892;2022-10-30T02:14:24;16.90;99.90
49238;DHT22;35069;47.906;1.892;2022-10-30T02:16:52;16.90;99.90
49238;DHT22;35069;47.906;1.892;2022-10-30T02:19:19;16.80;99.90
49238;DHT22;35069;47.906;1.892;2022-10-30T02:21:44;16.80;99.90
49238;DHT22;35069;47.906;1.892;2022-10-30T02:24:10;16.70;99.90
49238;DHT22;35069;47.906;1.892;2022-10-30T02:26:36;16.70;99.90
49238;DHT22;35069;47.906;1.892;2022-10-30T02:29:01;16.70;99.90
49238;DHT22;35069;47.906;1.892;2022-10-30T02:31:27;16.70;99.90
49238;DHT22;35069;47.906;1.892;2022-10-30T02:33:53;16.80;99.90
49238;DHT22;35069;47.906;1.892;2022-10-30T02:36:18;16.70;99.90
49238;DHT22;35069;47.906;1.892;2022-10-30T02:38:44;16.70;99.90
49238;DHT22;35069;47.906;1.892;2022-10-30T02:41:10;16.70;99.90
49238;DHT22;35069;47.906;1.892;2022-10-30T02:43:36;16.60;99.90
49238;DHT22;35069;47.906;1.892;2022-10-30T02:46:02;16.50;99.90
49238;DHT22;35069;47.906;1.892;2022-10-30T02:48:29;16.40;99.90
49238;DHT22;35069;47.906;1.892;2022-10-30T02:50:59;16.40;99.90
49238;DHT22;35069;47.906;1.892;2022-10-30T02:53:25;16.50;99.90
49238;DHT22;35069;47.906;1.892;2022-10-30T02:55:51;16.50;99.90
49238;DHT22;35069;47.906;1.892;2022-10-30T02:58:16;16.50;99.90
49238;DHT22;35069;47.906;1.892;2022-10-30T03:00:42;16.50;99.90
49238;DHT22;35069;47.906;1.892;2022-10-30T03:03:07;16.30;99.90
49238;DHT22;35069;47.906;1.892;2022-10-30T03:05:33;16.30;99.90
49238;DHT22;35069;47.906;1.892;2022-10-30T03:07:59;16.30;99.90
49238;DHT22;35069;47.906;1.892;2022-10-30T03:10:24;16.30;99.90
49238;DHT22;35069;47.906;1.892;2022-10-30T03:12:50;16.30;99.90
49238;DHT22;35069;47.906;1.892;2022-10-30T03:15:16;16.30;99.90
49238;DHT22;35069;47.906;1.892;2022-10-30T03:17:41;16.30;99.90
49238;DHT22;35069;47.906;1.892;2022-10-30T03:20:07;16.30;99.90
49238;DHT22;35069;47.906;1.892;2022-10-30T03:22:33;16.40;99.90
49238;DHT22;35069;47.906;1.892;2022-10-30T03:24:59;16.30;99.90
49238;DHT22;35069;47.906;1.892;2022-10-30T03:27:24;16.30;99.90
49238;DHT22;35069;47.906;1.892;2022-10-30T03:29:50;16.20;99.90
49238;DHT22;35069;47.906;1.892;2022-10-30T03:32:15;16.20;99.90
49238;DHT22;35069;47.906;1.892;2022-10-30T03:34:41;16.20;99.90
49238;DHT22;35069;47.906;1.892;2022-10-30T03:37:06;16.10;99.90
49238;DHT22;35069;47.906;1.892;2022-10-30T03:39:32;16.10;99.90
49238;DHT22;35069;47.906;1.892;2022-10-30T03:41:57;16.10;99.90
49238;DHT22;35069;47.906;1.892;2022-10-30T03:44:23;16.10;99.90
49238;DHT22;35069;47.906;1.892;2022-10-30T03:46:48;16.10;99.90
49238;DHT22;35069;47.906;1.892;2022-10-30T03:49:14;16.10;99.90
49238;DHT22;35069;47.906;1.892;2022-10-30T03:51:40;16.10;99.90
49238;DHT22;35069;47.906;1.892;2022-10-30T03:54:05;16.10;99.90
49238;DHT22;35069;47.906;1.892;2022-10-30T03:56:31;16.10;99.90
49238;DHT22;35069;47.906;1.892;2022-10-30T03:58:56;16.10;99.90
49238;DHT22;35069;47.906;1.892;2022-10-30T04:01:22;16.10;99.90
49238;DHT22;35069;47.906;1.892;2022-10-30T04:03:47;16.00;99.90
49238;DHT22;35069;47.906;1.892;2022-10-30T04:06:13;15.90;99.90
49238;DHT22;35069;47.906;1.892;2022-10-30T04:08:38;15.90;99.90
49238;DHT22;35069;47.906;1.892;2022-10-30T04:11:04;15.90;99.90
49238;DHT22;35069;47.906;1.892;2022-10-30T04:13:30;15.80;99.90
49238;DHT22;35069;47.906;1.892;2022-10-30T04:15:55;15.80;99.90
49238;DHT22;35069;47.906;1.892;2022-10-30T04:18:21;15.80;99.90
49238;DHT22;35069;47.906;1.892;2022-10-30T04:20:47;15.80;99.90
49238;DHT22;35069;47.906;1.892;2022-10-30T04:23:16;15.70;99.90
49238;DHT22;35069;47.906;1.892;2022-10-30T04:25:42;15.70;99.90
49238;DHT22;35069;47.906;1.892;2022-10-30T04:28:08;15.80;99.90
49238;DHT22;35069;47.906;1.892;2022-10-30T04:30:33;15.70;99.90
49238;DHT22;35069;47.906;1.892;2022-10-30T04:33:03;15.70;99.90
49238;DHT22;35069;47.906;1.892;2022-10-30T04:35:30;15.80;99.90
49238;DHT22;35069;47.906;1.892;2022-10-30T04:38:01;15.80;99.90
49238;DHT22;35069;47.906;1.892;2022-10-30T04:40:29;15.80;99.90
49238;DHT22;35069;47.906;1.892;2022-10-30T04:42:55;15.70;99.90
49238;DHT22;35069;47.906;1.892;2022-10-30T04:45:21;15.70;99.90
49238;DHT22;35069;47.906;1.892;2022-10-30T04:47:47;15.70;99.90
49238;DHT22;35069;47.906;1.892;2022-10-30T04:50:13;15.70;99.90
49238;DHT22;35069;47.906;1.892;2022-10-30T04:52:39;15.70;99.90
49238;DHT22;35069;47.906;1.892;2022-10-30T04:55:06;15.80;99.90
49238;DHT22;35069;47.906;1.892;2022-10-30T04:57:32;15.80;99.90
49238;DHT22;35069;47.906;1.892;2022-10-30T04:59:58;15.90;99.90
49238;DHT22;35069;47.906;1.892;2022-10-30T05:02:24;15.90;99.90
49238;DHT22;35069;47.906;1.892;2022-10-30T05:04:50;15.80;99.90
49238;DHT22;35069;47.906;1.892;2022-10-30T05:07:16;15.90;99.90
49238;DHT22;35069;47.906;1.892;2022-10-30T05:09:42;15.90;99.90
49238;DHT22;35069;47.906;1.892;2022-10-30T05:12:08;15.90;99.90
49238;DHT22;35069;47.906;1.892;2022-10-30T05:14:34;15.90;99.90
49238;DHT22;35069;47.906;1.892;2022-10-30T05:17:00;15.90;99.90
49238;DHT22;35069;47.906;1.892;2022-10-30T05:19:25;15.80;99.90
49238;DHT22;35069;47.906;1.892;2022-10-30T05:21:51;15.80;99.90
49238;DHT22;35069;47.906;1.892;2022-10-30T05:24:17;15.70;99.90
49238;DHT22;35069;47.906;1.892;2022-10-30T05:26:43;15.80;99.90
49238;DHT22;35069;47.906;1.892;2022-10-30T05:29:09;15.80;99.90
49238;DHT22;35069;47.906;1.892;2022-10-30T05:31:34;15.80;99.90
49238;DHT22;35069;47.906;1.892;2022-10-30T05:34:00;15.80;99.90
49238;DHT22;35069;47.906;1.892;2022-10-30T05:36:25;15.80;99.90
49238;DHT22;35069;47.906;1.892;2022-10-30T05:38:51;15.70;99.90
49238;DHT22;35069;47.906;1.892;2022-10-30T05:41:17;15.70;99.90
49238;DHT22;35069;47.906;1.892;2022-10-30T05:43:42;15.60;99.90
49238;DHT22;35069;47.906;1.892;2022-10-30T05:46:08;15.60;99.90
49238;DHT22;35069;47.906;1.892;2022-10-30T05:48:33;15.50;99.90
49238;DHT22;35069;47.906;1.892;2022-10-30T05:50:59;15.50;99.90
49238;DHT22;35069;47.906;1.892;2022-10-30T05:53:24;15.60;99.90
49238;DHT22;35069;47.906;1.892;2022-10-30T05:55:50;15.50;99.90
49238;DHT22;35069;47.906;1.892;2022-10-30T05:58:16;15.50;99.90
49238;DHT22;35069;47.906;1.892;2022-10-30T06:00:41;15.40;99.90
49238;DHT22;35069;47.906;1.892;2022-10-30T06:03:12;15.40;99.90
49238;DHT22;35069;47.906;1.892;2022-10-30T06:05:38;15.40;99.90
49238;DHT22;35069;47.906;1.892;2022-10-30T06:08:05;15.40;99.90
49238;DHT22;35069;47.906;1.892;2022-10-30T06:10:31;15.40;99.90
49238;DHT22;35069;47.906;1.892;2022-10-30T06:12:59;15.40;99.90
49238;DHT22;35069;47.906;1.892;2022-10-30T06:15:25;15.40;99.90
49238;DHT22;35069;47.906;1.892;2022-10-30T06:17:51;15.40;99.90
49238;DHT22;35069;47.906;1.892;2022-10-30T06:20:18;15.40;99.90
49238;DHT22;35069;47.906;1.892;2022-10-30T06:22:57;15.40;99.90
49238;DHT22;35069;47.906;1.892;2022-10-30T06:25:24;15.30;99.90
49238;DHT22;35069;47.906;1.892;2022-10-30T06:27:50;15.30;99.90
49238;DHT22;35069;47.906;1.892;2022-10-30T06:30:16;15.30;99.90
49238;DHT22;35069;47.906;1.892;2022-10-30T06:32:42;15.30;99.90
49238;DHT22;35069;47.906;1.892;2022-10-30T06:35:08;15.30;99.90
49238;DHT22;35069;47.906;1.892;2022-10-30T06:37:34;15.30;99.90
49238;DHT22;35069;47.906;1.892;2022-10-30T06:39:59;15.30;99.90
49238;DHT22;35069;47.906;1.892;2022-10-30T06:42:25;15.30;99.90
49238;DHT22;35069;47.906;1.892;2022-10-30T06:44:51;15.30;99.90
49238;DHT22;35069;47.906;1.892;2022-10-30T06:47:16;15.30;99.90
49238;DHT22;35069;47.906;1.892;2022-10-30T06:49:42;15.30;99.90
49238;DHT22;35069;47.906;1.892;2022-10-30T06:52:08;15.30;99.90
49238;DHT22;35069;47.906;1.892;2022-10-30T06:54:34;15.30;99.90
49238;DHT22;35069;47.906;1.892;2022-10-30T06:56:59;15.40;99.90
49238;DHT22;35069;47.906;1.892;2022-10-30T06:59:26;15.40;99.90
49238;DHT22;35069;47.906;1.892;2022-10-30T07:01:51;15.40;99.90
49238;DHT22;35069;47.906;1.892;2022-10-30T07:04:17;15.40;99.90
49238;DHT22;35069;47.906;1.892;2022-10-30T07:06:42;15.40;99.90
49238;DHT22;35069;47.906;1.892;2022-10-30T07:09:08;15.50;99.90
49238;DHT22;35069;47.906;1.892;2022-10-30T07:11:34;15.50;99.90
49238;DHT22;35069;47.906;1.892;2022-10-30T07:14:00;15.50;99.90
49238;DHT22;35069;47.906;1.892;2022-10-30T07:16:26;15.50;99.90
49238;DHT22;35069;47.906;1.892;2022-10-30T07:18:52;15.60;99.90
49238;DHT22;35069;47.906;1.892;2022-10-30T07:21:17;15.60;99.90
49238;DHT22;35069;47.906;1.892;2022-10-30T07:23:43;15.60;99.90
49238;DHT22;35069;47.906;1.892;2022-10-30T07:26:08;15.70;99.90
49238;DHT22;35069;47.906;1.892;2022-10-30T07:28:34;15.80;99.90
49238;DHT22;35069;47.906;1.892;2022-10-30T07:30:59;15.80;99.90
49238;DHT22;35069;47.906;1.892;2022-10-30T07:33:25;15.90;99.90
49238;DHT22;35069;47.906;1.892;2022-10-30T07:35:51;16.00;99.90
49238;DHT22;35069;47.906;1.892;2022-10-30T07:38:17;16.00;99.90
49238;DHT22;35069;47.906;1.892;2022-10-30T07:40:42;16.10;99.90
49238;DHT22;35069;47.906;1.892;2022-10-30T07:43:09;16.10;99.90
49238;DHT22;35069;47.906;1.892;2022-10-30T07:45:38;16.10;99.90
49238;DHT22;35069;47.906;1.892;2022-10-30T07:48:04;16.10;99.90
49238;DHT22;35069;47.906;1.892;2022-10-30T07:50:30;16.10;99.90
49238;DHT22;35069;47.906;1.892;2022-10-30T07:52:56;16.20;99.90
49238;DHT22;35069;47.906;1.892;2022-10-30T07:55:22;16.20;99.90
49238;DHT22;35069;47.906;1.892;2022-10-30T07:57:48;16.20;99.90
49238;DHT22;35069;47.906;1.892;2022-10-30T08:00:15;16.20;99.90
49238;DHT22;35069;47.906;1.892;2022-10-30T08:02:41;16.20;99.90
49238;DHT22;35069;47.906;1.892;2022-10-30T08:05:08;16.30;99.90
49238;DHT22;35069;47.906;1.892;2022-10-30T08:07:35;16.40;99.90
49238;DHT22;35069;47.906;1.892;2022-10-30T08:10:01;16.30;99.90
49238;DHT22;35069;47.906;1.892;2022-10-30T08:12:27;16.30;99.90
49238;DHT22;35069;47.906;1.892;2022-10-30T08:14:53;16.30;99.90
49238;DHT22;35069;47.906;1.892;2022-10-30T08:17:19;16.30;99.90
49238;DHT22;35069;47.906;1.892;2022-10-30T08:19:45;16.40;99.90
49238;DHT22;35069;47.906;1.892;2022-10-30T08:22:11;16.40;99.90
49238;DHT22;35069;47.906;1.892;2022-10-30T08:24:37;16.50;99.90
49238;DHT22;35069;47.906;1.892;2022-10-30T08:27:03;16.50;99.90
49238;DHT22;35069;47.906;1.892;2022-10-30T08:29:30;16.60;99.90
49238;DHT22;35069;47.906;1.892;2022-10-30T08:31:55;16.70;99.90
49238;DHT22;35069;47.906;1.892;2022-10-30T08:34:21;16.80;99.90
49238;DHT22;35069;47.906;1.892;2022-10-30T08:36:48;17.00;99.90
49238;DHT22;35069;47.906;1.892;2022-10-30T08:39:14;17.20;99.90
49238;DHT22;35069;47.906;1.892;2022-10-30T08:41:40;17.30;99.70
49238;DHT22;35069;47.906;1.892;2022-10-30T08:44:06;17.40;99.50
49238;DHT22;35069;47.906;1.892;2022-10-30T08:46:31;17.50;99.20
49238;DHT22;35069;47.906;1.892;2022-10-30T08:48:57;17.60;98.70
49238;DHT22;35069;47.906;1.892;2022-10-30T08:51:22;17.70;98.40
49238;DHT22;35069;47.906;1.892;2022-10-30T08:53:48;17.90;98.10
49238;DHT22;35069;47.906;1.892;2022-10-30T08:56:17;18.00;97.90
49238;DHT22;35069;47.906;1.892;2022-10-30T08:58:42;18.20;97.80
49238;DHT22;35069;47.906;1.892;2022-10-30T09:01:08;18.20;97.10
49238;DHT22;35069;47.906;1.892;2022-10-30T09:03:34;18.10;97.00
49238;DHT22;35069;47.906;1.892;2022-10-30T09:06:00;18.10;96.90
49238;DHT22;35069;47.906;1.892;2022-10-30T09:08:26;18.10;96.80
49238;DHT22;35069;47.906;1.892;2022-10-30T09:10:56;18.20;96.60
49238;DHT22;35069;47.906;1.892;2022-10-30T09:13:23;18.30;96.50
49238;DHT22;35069;47.906;1.892;2022-10-30T09:15:48;18.30;96.20
49238;DHT22;35069;47.906;1.892;2022-10-30T09:18:14;18.40;95.90
49238;DHT22;35069;47.906;1.892;2022-10-30T09:20:40;18.50;95.50
49238;DHT22;35069;47.906;1.892;2022-10-30T09:23:05;18.70;95.40
49238;DHT22;35069;47.906;1.892;2022-10-30T09:25:31;18.90;95.20
49238;DHT22;35069;47.906;1.892;2022-10-30T09:27:56;19.10;94.90
49238;DHT22;35069;47.906;1.892;2022-10-30T09:30:22;19.30;94.50
49238;DHT22;35069;47.906;1.892;2022-10-30T09:32:59;19.50;94.30
49238;DHT22;35069;47.906;1.892;2022-10-30T09:35:26;19.80;94.00
49238;DHT22;35069;47.906;1.892;2022-10-30T09:37:52;19.90;93.80
49238;DHT22;35069;47.906;1.892;2022-10-30T09:40:58;19.90;93.00
49238;DHT22;35069;47.906;1.892;2022-10-30T09:43:49;19.90;92.20
49238;DHT22;35069;47.906;1.892;2022-10-30T09:49:04;20.20;92.50
49238;DHT22;35069;47.906;1.892;2022-10-30T09:54:43;20.00;91.70
49238;DHT22;35069;47.906;1.892;2022-10-30T09:59:42;20.40;91.80
49238;DHT22;35069;47.906;1.892;2022-10-30T10:04:53;21.30;90.90
49238;DHT22;35069;47.906;1.892;2022-10-30T10:07:41;21.90;90.60
49238;DHT22;35069;47.906;1.892;2022-10-30T10:10:13;22.40;89.40
49238;DHT22;35069;47.906;1.892;2022-10-30T10:12:44;22.30;86.40
49238;DHT22;35069;47.906;1.892;2022-10-30T10:15:57;22.20;86.40
49238;DHT22;35069;47.906;1.892;2022-10-30T10:18:10;23.00;85.80
49238;DHT22;35069;47.906;1.892;2022-10-30T10:20:39;24.20;82.90
49238;DHT22;35069;47.906;1.892;2022-10-30T10:23:29;25.50;79.30
49238;DHT22;35069;47.906;1.892;2022-10-30T10:25:59;26.10;73.60
49238;DHT22;35069;47.906;1.892;2022-10-30T10:28:51;25.80;73.50
49238;DHT22;35069;47.906;1.892;2022-10-30T10:31:42;25.40;69.80
49238;DHT22;35069;47.906;1.892;2022-10-30T10:36:49;25.50;72.50
49238;DHT22;35069;47.906;1.892;2022-10-30T10:42:37;25.00;72.40
49238;DHT22;35069;47.906;1.892;2022-10-30T10:50:34;23.20;76.20
49238;DHT22;35069;47.906;1.892;2022-10-30T10:53:09;23.20;77.20
49238;DHT22;35069;47.906;1.892;2022-10-30T10:55:37;23.20;77.80
49238;DHT22;35069;47.906;1.892;2022-10-30T11:00:49;22.70;78.20
49238;DHT22;35069;47.906;1.892;2022-10-30T11:03:28;22.60;79.40
49238;DHT22;35069;47.906;1.892;2022-10-30T11:05:58;22.70;80.30
49238;DHT22;35069;47.906;1.892;2022-10-30T11:08:27;22.80;80.20
49238;DHT22;35069;47.906;1.892;2022-10-30T11:11:01;22.90;80.40
49238;DHT22;35069;47.906;1.892;2022-10-30T11:13:33;22.80;80.70
49238;DHT22;35069;47.906;1.892;2022-10-30T11:16:10;23.00;80.70
49238;DHT22;35069;47.906;1.892;2022-10-30T11:18:38;23.00;80.50
49238;DHT22;35069;47.906;1.892;2022-10-30T11:21:31;22.80;80.60
49238;DHT22;35069;47.906;1.892;2022-10-30T11:23:57;22.60;80.40
49238;DHT22;35069;47.906;1.892;2022-10-30T11:26:26;22.70;80.70
49238;DHT22;35069;47.906;1.892;2022-10-30T11:31:34;22.50;81.40
49238;DHT22;35069;47.906;1.892;2022-10-30T11:36:50;22.60;81.80
49238;DHT22;35069;47.906;1.892;2022-10-30T11:39:26;22.50;81.80
49238;DHT22;35069;47.906;1.892;2022-10-30T11:42:05;22.50;82.10
49238;DHT22;35069;47.906;1.892;2022-10-30T11:47:08;22.20;83.00
49238;DHT22;35069;47.906;1.892;2022-10-30T11:52:07;24.60;79.80
49238;DHT22;35069;47.906;1.892;2022-10-30T11:54:36;26.10;76.50
49238;DHT22;35069;47.906;1.892;2022-10-30T11:57:02;28.20;73.10
49238;DHT22;35069;47.906;1.892;2022-10-30T11:59:28;29.50;69.00
49238;DHT22;35069;47.906;1.892;2022-10-30T12:02:23;29.20;66.30
49238;DHT22;35069;47.906;1.892;2022-10-30T12:04:51;28.70;64.90
49238;DHT22;35069;47.906;1.892;2022-10-30T12:09:46;29.60;64.80
49238;DHT22;35069;47.906;1.892;2022-10-30T12:12:30;29.20;64.20
49238;DHT22;35069;47.906;1.892;2022-10-30T12:15:17;28.00;64.90
49238;DHT22;35069;47.906;1.892;2022-10-30T12:18:03;26.60;67.20
49238;DHT22;35069;47.906;1.892;2022-10-30T12:20:29;25.10;70.40
49238;DHT22;35069;47.906;1.892;2022-10-30T12:22:56;24.00;72.50
49238;DHT22;35069;47.906;1.892;2022-10-30T12:25:30;23.30;75.30
49238;DHT22;35069;47.906;1.892;2022-10-30T12:28:04;22.60;78.10
49238;DHT22;35069;47.906;1.892;2022-10-30T12:30:36;22.30;80.00
49238;DHT22;35069;47.906;1.892;2022-10-30T12:33:28;21.90;81.60
49238;DHT22;35069;47.906;1.892;2022-10-30T12:35:56;21.60;83.20
49238;DHT22;35069;47.906;1.892;2022-10-30T12:38:32;21.30;85.60
49238;DHT22;35069;47.906;1.892;2022-10-30T12:44:06;20.90;88.00
49238;DHT22;35069;47.906;1.892;2022-10-30T12:47:06;20.90;88.50
49238;DHT22;35069;47.906;1.892;2022-10-30T12:50:01;20.90;89.30
49238;DHT22;35069;47.906;1.892;2022-10-30T12:55:25;20.80;90.70
49238;DHT22;35069;47.906;1.892;2022-10-30T13:00:51;20.80;90.60
49238;DHT22;35069;47.906;1.892;2022-10-30T13:03:31;20.70;90.90
49238;DHT22;35069;47.906;1.892;2022-10-30T13:06:02;20.60;91.30
49238;DHT22;35069;47.906;1.892;2022-10-30T13:11:20;20.70;91.50
49238;DHT22;35069;47.906;1.892;2022-10-30T13:13:51;20.70;91.60
49238;DHT22;35069;47.906;1.892;2022-10-30T13:16:28;20.70;91.70
49238;DHT22;35069;47.906;1.892;2022-10-30T13:18:58;20.60;92.10
49238;DHT22;35069;47.906;1.892;2022-10-30T13:24:57;20.60;92.20
49238;DHT22;35069;47.906;1.892;2022-10-30T13:27:30;20.60;92.50
49238;DHT22;35069;47.906;1.892;2022-10-30T13:30:05;20.50;92.10
49238;DHT22;35069;47.906;1.892;2022-10-30T13:32:47;20.50;92.20
49238;DHT22;35069;47.906;1.892;2022-10-30T13:43:46;20.30;92.50
49238;DHT22;35069;47.906;1.892;2022-10-30T13:49:11;20.50;92.70
49238;DHT22;35069;47.906;1.892;2022-10-30T13:54:26;20.50;92.60
49238;DHT22;35069;47.906;1.892;2022-10-30T13:56:55;20.30;92.80
49238;DHT22;35069;47.906;1.892;2022-10-30T14:08:17;19.80;93.40
49238;DHT22;35069;47.906;1.892;2022-10-30T14:10:48;19.90;93.50
49238;DHT22;35069;47.906;1.892;2022-10-30T14:13:23;19.80;93.50
49238;DHT22;35069;47.906;1.892;2022-10-30T14:16:00;19.80;93.60
49238;DHT22;35069;47.906;1.892;2022-10-30T14:18:27;19.80;93.60
49238;DHT22;35069;47.906;1.892;2022-10-30T14:20:58;19.80;93.60
49238;DHT22;35069;47.906;1.892;2022-10-30T14:23:40;19.60;93.60
49238;DHT22;35069;47.906;1.892;2022-10-30T14:28:39;19.50;93.80
49238;DHT22;35069;47.906;1.892;2022-10-30T14:31:07;19.40;93.90
49238;DHT22;35069;47.906;1.892;2022-10-30T14:44:51;19.40;94.30
49238;DHT22;35069;47.906;1.892;2022-10-30T14:47:23;19.40;94.30
49238;DHT22;35069;47.906;1.892;2022-10-30T14:50:16;19.50;94.40
49238;DHT22;35069;47.906;1.892;2022-10-30T15:06:25;19.70;94.00
49238;DHT22;35069;47.906;1.892;2022-10-30T15:08:40;19.60;93.90
49238;DHT22;35069;47.906;1.892;2022-10-30T15:13:55;19.60;93.80
49238;DHT22;35069;47.906;1.892;2022-10-30T15:16:24;19.50;93.80
49238;DHT22;35069;47.906;1.892;2022-10-30T15:19:01;19.40;93.90
49238;DHT22;35069;47.906;1.892;2022-10-30T15:21:30;19.30;94.30
49238;DHT22;35069;47.906;1.892;2022-10-30T15:23:58;19.30;94.20
49238;DHT22;35069;47.906;1.892;2022-10-30T15:26:33;19.30;94.20
49238;DHT22;35069;47.906;1.892;2022-10-30T15:29:01;19.20;94.30
49238;DHT22;35069;47.906;1.892;2022-10-30T15:31:28;19.20;94.30
49238;DHT22;35069;47.906;1.892;2022-10-30T15:33:54;19.10;94.30
49238;DHT22;35069;47.906;1.892;2022-10-30T15:36:40;19.10;94.50
49238;DHT22;35069;47.906;1.892;2022-10-30T15:39:09;19.10;94.60
49238;DHT22;35069;47.906;1.892;2022-10-30T15:41:43;19.10;94.70
49238;DHT22;35069;47.906;1.892;2022-10-30T15:44:14;19.10;94.80
49238;DHT22;35069;47.906;1.892;2022-10-30T15:46:46;19.10;94.90
49238;DHT22;35069;47.906;1.892;2022-10-30T15:49:20;19.10;94.90
49238;DHT22;35069;47.906;1.892;2022-10-30T15:51:49;19.10;95.00
49238;DHT22;35069;47.906;1.892;2022-10-30T15:54:17;19.10;95.10
49238;DHT22;35069;47.906;1.892;2022-10-30T15:56:47;19.10;95.20
49238;DHT22;35069;47.906;1.892;2022-10-30T15:59:26;19.00;95.20
49238;DHT22;35069;47.906;1.892;2022-10-30T16:01:54;19.00;95.40
49238;DHT22;35069;47.906;1.892;2022-10-30T16:04:21;19.00;95.40
49238;DHT22;35069;47.906;1.892;2022-10-30T16:09:17;18.80;96.10
49238;DHT22;35069;47.906;1.892;2022-10-30T16:11:43;18.70;95.90
49238;DHT22;35069;47.906;1.892;2022-10-30T16:14:13;18.70;96.00
49238;DHT22;35069;47.906;1.892;2022-10-30T16:16:40;18.70;96.30
49238;DHT22;35069;47.906;1.892;2022-10-30T16:19:10;18.60;96.50
49238;DHT22;35069;47.906;1.892;2022-10-30T16:21:47;18.60;96.60
49238;DHT22;35069;47.906;1.892;2022-10-30T16:24:13;18.60;96.80
49238;DHT22;35069;47.906;1.892;2022-10-30T16:26:40;18.60;96.90
49238;DHT22;35069;47.906;1.892;2022-10-30T16:31:37;18.60;97.10
49238;DHT22;35069;47.906;1.892;2022-10-30T16:34:08;18.50;97.30
49238;DHT22;35069;47.906;1.892;2022-10-30T16:36:35;18.50;97.60
49238;DHT22;35069;47.906;1.892;2022-10-30T16:39:02;18.50;97.70
49238;DHT22;35069;47.906;1.892;2022-10-30T16:41:28;18.50;97.90
49238;DHT22;35069;47.906;1.892;2022-10-30T16:44:24;18.40;98.00
49238;DHT22;35069;47.906;1.892;2022-10-30T16:49:32;18.40;98.40
49238;DHT22;35069;47.906;1.892;2022-10-30T16:52:04;18.40;98.50
49238;DHT22;35069;47.906;1.892;2022-10-30T16:54:32;18.40;98.70
49238;DHT22;35069;47.906;1.892;2022-10-30T16:57:01;18.40;99.00
49238;DHT22;35069;47.906;1.892;2022-10-30T16:59:34;18.40;99.10
49238;DHT22;35069;47.906;1.892;2022-10-30T17:02:03;18.40;99.20
49238;DHT22;35069;47.906;1.892;2022-10-30T17:04:31;18.40;99.30
49238;DHT22;35069;47.906;1.892;2022-10-30T17:07:15;18.40;99.50
49238;DHT22;35069;47.906;1.892;2022-10-30T17:09:48;18.30;99.70
49238;DHT22;35069;47.906;1.892;2022-10-30T17:12:18;18.30;99.90
49238;DHT22;35069;47.906;1.892;2022-10-30T17:20:12;18.20;99.90
49238;DHT22;35069;47.906;1.892;2022-10-30T17:22:51;18.20;99.90
49238;DHT22;35069;47.906;1.892;2022-10-30T17:25:36;18.20;99.90
49238;DHT22;35069;47.906;1.892;2022-10-30T17:28:03;18.20;99.90
49238;DHT22;35069;47.906;1.892;2022-10-30T17:33:00;18.20;99.90
49238;DHT22;35069;47.906;1.892;2022-10-30T17:35:26;18.20;99.90
49238;DHT22;35069;47.906;1.892;2022-10-30T17:37:51;18.20;99.90
49238;DHT22;35069;47.906;1.892;2022-10-30T17:40:17;18.10;99.90
49238;DHT22;35069;47.906;1.892;2022-10-30T17:42:44;18.20;99.90
49238;DHT22;35069;47.906;1.892;2022-10-30T17:45:13;18.20;99.90
49238;DHT22;35069;47.906;1.892;2022-10-30T17:47:40;18.20;99.90
49238;DHT22;35069;47.906;1.892;2022-10-30T17:50:05;18.10;99.90
49238;DHT22;35069;47.906;1.892;2022-10-30T17:52:32;18.10;99.90
49238;DHT22;35069;47.906;1.892;2022-10-30T17:54:58;18.10;99.90
49238;DHT22;35069;47.906;1.892;2022-10-30T17:57:24;18.10;99.90
49238;DHT22;35069;47.906;1.892;2022-10-30T17:59:51;18.10;99.90
49238;DHT22;35069;47.906;1.892;2022-10-30T18:02:20;18.10;99.90
49238;DHT22;35069;47.906;1.892;2022-10-30T18:04:46;18.10;99.90
49238;DHT22;35069;47.906;1.892;2022-10-30T18:07:14;18.10;99.90
49238;DHT22;35069;47.906;1.892;2022-10-30T18:09:41;18.00;99.90